Terminal Aerodrome Forecast
Issued by NWS

Home | Current Version | Previous Version | Graphics & Text | Print | Product List | Glossary On
Versions: 1 2 3 4 5 6 7 8 9 10 11 12 13 14
000
FTUS43 KGRB 251734
TAFMTW
TAF
KMTW 251734Z 2518/2618 03005KT P6SM SCT025 BKN035
      TEMPO 2518/2520 BKN025 OVC035
     FM252000 04006KT P6SM SKC
     FM252200 09005KT P6SM SKC
      TEMPO 2609/2612 1SM BR
     FM261300 21003KT P6SM SCT250=

USA.gov is the U.S. government's official web portal to all federal, state and local government web resources and services.